Riverton, Indiana
Current Conditions -  °F | °C
As of 8:15 PM on Tuesday 27 Jan 2015 (Local Time) from KRSV Reporting Station
Overcast Overcast  
Wind Chill: -4°   Ceiling: 1900
Heat Index:   Visibility: 10mi
Dew Point: -2°   Wind: 6mph
Humidity: 88%   Direction: 10°N
Pressure: 30.26"   Gusts: NA
Location:  39.0138°N, 87.523°W
Report Text: KRSV 280115Z AUTO 01005KT 10SM BKN019 OVC024 00/M02 A3026 RMK AO2 T10041021
Loading
Personal Weather Stations






























Interactive Weather Map New forecast layout! Learn more

10-Day Weather Forecast

Advertisements
Track Severe Weather on mobile